sensor_id;sensor_type;location;lat;lon;timestamp;P1;durP1;ratioP1;P2;durP2;ratioP2
11703;SDS011;5908;51.354;7.458;2024-01-30T00:02:24;13.83;;;9.87;;
11703;SDS011;5908;51.354;7.458;2024-01-30T00:04:52;12.48;;;10.00;;
11703;SDS011;5908;51.354;7.458;2024-01-30T00:07:19;12.27;;;9.73;;
11703;SDS011;5908;51.354;7.458;2024-01-30T00:09:46;14.20;;;10.32;;
11703;SDS011;5908;51.354;7.458;2024-01-30T00:12:13;12.18;;;9.35;;
11703;SDS011;5908;51.354;7.458;2024-01-30T00:14:41;12.95;;;9.93;;
11703;SDS011;5908;51.354;7.458;2024-01-30T00:17:08;14.35;;;10.65;;
11703;SDS011;5908;51.354;7.458;2024-01-30T00:19:34;13.23;;;9.95;;
11703;SDS011;5908;51.354;7.458;2024-01-30T00:22:03;12.48;;;10.18;;
11703;SDS011;5908;51.354;7.458;2024-01-30T00:24:30;13.02;;;10.05;;
11703;SDS011;5908;51.354;7.458;2024-01-30T00:26:56;15.52;;;10.23;;
11703;SDS011;5908;51.354;7.458;2024-01-30T00:29:23;14.67;;;10.40;;
11703;SDS011;5908;51.354;7.458;2024-01-30T00:31:54;14.35;;;10.48;;
11703;SDS011;5908;51.354;7.458;2024-01-30T00:34:21;13.20;;;10.17;;
11703;SDS011;5908;51.354;7.458;2024-01-30T00:36:48;12.43;;;10.10;;
11703;SDS011;5908;51.354;7.458;2024-01-30T00:39:16;13.55;;;10.00;;
11703;SDS011;5908;51.354;7.458;2024-01-30T00:41:44;13.27;;;10.43;;
11703;SDS011;5908;51.354;7.458;2024-01-30T00:44:11;14.57;;;10.05;;
11703;SDS011;5908;51.354;7.458;2024-01-30T00:46:38;13.23;;;10.10;;
11703;SDS011;5908;51.354;7.458;2024-01-30T00:49:04;12.77;;;10.15;;
11703;SDS011;5908;51.354;7.458;2024-01-30T00:51:31;17.45;;;12.63;;
11703;SDS011;5908;51.354;7.458;2024-01-30T00:53:58;14.38;;;10.48;;
11703;SDS011;5908;51.354;7.458;2024-01-30T00:56:26;14.27;;;10.90;;
11703;SDS011;5908;51.354;7.458;2024-01-30T00:58:53;14.95;;;11.02;;
11703;SDS011;5908;51.354;7.458;2024-01-30T01:01:20;14.97;;;10.40;;
11703;SDS011;5908;51.354;7.458;2024-01-30T01:03:47;12.88;;;10.25;;
11703;SDS011;5908;51.354;7.458;2024-01-30T01:06:14;14.98;;;11.20;;
11703;SDS011;5908;51.354;7.458;2024-01-30T01:08:41;12.38;;;10.60;;
11703;SDS011;5908;51.354;7.458;2024-01-30T01:11:07;13.60;;;10.52;;
11703;SDS011;5908;51.354;7.458;2024-01-30T01:13:36;14.00;;;10.95;;
11703;SDS011;5908;51.354;7.458;2024-01-30T01:16:02;13.68;;;10.93;;
11703;SDS011;5908;51.354;7.458;2024-01-30T01:18:30;12.93;;;10.20;;
11703;SDS011;5908;51.354;7.458;2024-01-30T01:20:56;14.90;;;10.75;;
11703;SDS011;5908;51.354;7.458;2024-01-30T01:23:23;14.17;;;10.53;;
11703;SDS011;5908;51.354;7.458;2024-01-30T01:25:50;14.52;;;10.57;;
11703;SDS011;5908;51.354;7.458;2024-01-30T01:28:17;13.98;;;10.77;;
11703;SDS011;5908;51.354;7.458;2024-01-30T01:30:45;14.50;;;10.85;;
11703;SDS011;5908;51.354;7.458;2024-01-30T01:33:11;14.07;;;10.60;;
11703;SDS011;5908;51.354;7.458;2024-01-30T01:35:39;14.73;;;10.98;;
11703;SDS011;5908;51.354;7.458;2024-01-30T01:38:06;14.65;;;11.15;;
11703;SDS011;5908;51.354;7.458;2024-01-30T01:40:32;14.18;;;10.90;;
11703;SDS011;5908;51.354;7.458;2024-01-30T01:43:02;14.73;;;10.25;;
11703;SDS011;5908;51.354;7.458;2024-01-30T01:45:30;13.63;;;10.35;;
11703;SDS011;5908;51.354;7.458;2024-01-30T01:47:58;14.32;;;10.70;;
11703;SDS011;5908;51.354;7.458;2024-01-30T01:50:24;14.48;;;10.82;;
11703;SDS011;5908;51.354;7.458;2024-01-30T01:52:53;14.77;;;10.73;;
11703;SDS011;5908;51.354;7.458;2024-01-30T01:55:21;13.75;;;10.40;;
11703;SDS011;5908;51.354;7.458;2024-01-30T01:57:49;14.20;;;10.50;;
11703;SDS011;5908;51.354;7.458;2024-01-30T02:00:18;13.85;;;10.90;;
11703;SDS011;5908;51.354;7.458;2024-01-30T02:02:46;13.40;;;11.02;;
11703;SDS011;5908;51.354;7.458;2024-01-30T02:05:14;14.10;;;10.65;;
11703;SDS011;5908;51.354;7.458;2024-01-30T02:07:41;15.45;;;10.63;;
11703;SDS011;5908;51.354;7.458;2024-01-30T02:10:08;15.57;;;11.30;;
11703;SDS011;5908;51.354;7.458;2024-01-30T02:12:35;13.00;;;10.35;;
11703;SDS011;5908;51.354;7.458;2024-01-30T02:15:02;14.25;;;11.23;;
11703;SDS011;5908;51.354;7.458;2024-01-30T02:17:30;16.10;;;10.85;;
11703;SDS011;5908;51.354;7.458;2024-01-30T02:19:57;15.38;;;10.75;;
11703;SDS011;5908;51.354;7.458;2024-01-30T02:22:25;14.48;;;10.70;;
11703;SDS011;5908;51.354;7.458;2024-01-30T02:24:51;14.35;;;10.98;;
11703;SDS011;5908;51.354;7.458;2024-01-30T02:27:18;14.95;;;10.55;;
11703;SDS011;5908;51.354;7.458;2024-01-30T02:29:45;12.93;;;10.10;;
11703;SDS011;5908;51.354;7.458;2024-01-30T02:32:12;15.38;;;10.50;;
11703;SDS011;5908;51.354;7.458;2024-01-30T02:34:39;14.20;;;10.30;;
11703;SDS011;5908;51.354;7.458;2024-01-30T02:37:05;14.25;;;10.93;;
11703;SDS011;5908;51.354;7.458;2024-01-30T02:39:33;12.85;;;10.02;;
11703;SDS011;5908;51.354;7.458;2024-01-30T02:42:00;14.68;;;10.25;;
11703;SDS011;5908;51.354;7.458;2024-01-30T02:44:26;14.55;;;10.48;;
11703;SDS011;5908;51.354;7.458;2024-01-30T02:46:53;14.57;;;11.10;;
11703;SDS011;5908;51.354;7.458;2024-01-30T02:49:20;16.73;;;10.63;;
11703;SDS011;5908;51.354;7.458;2024-01-30T02:51:46;14.85;;;10.57;;
11703;SDS011;5908;51.354;7.458;2024-01-30T02:54:13;13.02;;;10.35;;
11703;SDS011;5908;51.354;7.458;2024-01-30T02:56:41;13.80;;;10.07;;
11703;SDS011;5908;51.354;7.458;2024-01-30T02:59:08;14.55;;;10.10;;
11703;SDS011;5908;51.354;7.458;2024-01-30T03:01:41;13.45;;;9.68;;
11703;SDS011;5908;51.354;7.458;2024-01-30T03:04:08;11.80;;;9.77;;
11703;SDS011;5908;51.354;7.458;2024-01-30T03:06:35;12.90;;;9.57;;
11703;SDS011;5908;51.354;7.458;2024-01-30T03:09:02;13.32;;;10.02;;
11703;SDS011;5908;51.354;7.458;2024-01-30T03:11:29;13.50;;;10.23;;
11703;SDS011;5908;51.354;7.458;2024-01-30T03:13:57;14.27;;;10.03;;
11703;SDS011;5908;51.354;7.458;2024-01-30T03:16:24;12.45;;;9.73;;
11703;SDS011;5908;51.354;7.458;2024-01-30T03:18:51;13.93;;;10.07;;
11703;SDS011;5908;51.354;7.458;2024-01-30T03:21:17;13.82;;;10.27;;
11703;SDS011;5908;51.354;7.458;2024-01-30T03:23:44;13.45;;;10.00;;
11703;SDS011;5908;51.354;7.458;2024-01-30T03:26:11;12.70;;;9.37;;
11703;SDS011;5908;51.354;7.458;2024-01-30T03:28:38;13.03;;;10.13;;
11703;SDS011;5908;51.354;7.458;2024-01-30T03:31:06;13.18;;;10.00;;
11703;SDS011;5908;51.354;7.458;2024-01-30T03:33:33;11.40;;;9.18;;
11703;SDS011;5908;51.354;7.458;2024-01-30T03:36:02;13.27;;;9.77;;
11703;SDS011;5908;51.354;7.458;2024-01-30T03:38:30;12.00;;;9.30;;
11703;SDS011;5908;51.354;7.458;2024-01-30T03:40:58;11.65;;;9.70;;
11703;SDS011;5908;51.354;7.458;2024-01-30T03:43:25;14.07;;;9.93;;
11703;SDS011;5908;51.354;7.458;2024-01-30T03:45:52;13.40;;;9.85;;
11703;SDS011;5908;51.354;7.458;2024-01-30T03:48:20;12.30;;;9.27;;
11703;SDS011;5908;51.354;7.458;2024-01-30T03:50:47;11.57;;;9.27;;
11703;SDS011;5908;51.354;7.458;2024-01-30T03:53:14;15.38;;;10.15;;
11703;SDS011;5908;51.354;7.458;2024-01-30T03:55:41;12.90;;;9.48;;
11703;SDS011;5908;51.354;7.458;2024-01-30T03:58:07;14.27;;;9.73;;
11703;SDS011;5908;51.354;7.458;2024-01-30T04:00:34;13.70;;;8.97;;
11703;SDS011;5908;51.354;7.458;2024-01-30T04:03:01;15.35;;;9.27;;
11703;SDS011;5908;51.354;7.458;2024-01-30T04:05:29;11.32;;;9.32;;
11703;SDS011;5908;51.354;7.458;2024-01-30T04:07:56;11.02;;;8.88;;
11703;SDS011;5908;51.354;7.458;2024-01-30T04:10:23;12.45;;;9.60;;
11703;SDS011;5908;51.354;7.458;2024-01-30T04:12:50;14.93;;;10.00;;
11703;SDS011;5908;51.354;7.458;2024-01-30T04:15:18;17.55;;;10.02;;
11703;SDS011;5908;51.354;7.458;2024-01-30T04:17:45;14.73;;;10.02;;
11703;SDS011;5908;51.354;7.458;2024-01-30T04:20:13;13.77;;;9.60;;
11703;SDS011;5908;51.354;7.458;2024-01-30T04:22:42;12.10;;;9.60;;
11703;SDS011;5908;51.354;7.458;2024-01-30T04:25:09;11.75;;;8.73;;
11703;SDS011;5908;51.354;7.458;2024-01-30T04:27:36;13.40;;;9.73;;
11703;SDS011;5908;51.354;7.458;2024-01-30T04:30:03;10.02;;;8.68;;
11703;SDS011;5908;51.354;7.458;2024-01-30T04:32:31;12.48;;;9.32;;
11703;SDS011;5908;51.354;7.458;2024-01-30T04:34:58;12.25;;;8.80;;
11703;SDS011;5908;51.354;7.458;2024-01-30T04:37:25;13.27;;;9.45;;
11703;SDS011;5908;51.354;7.458;2024-01-30T04:39:53;12.55;;;9.07;;
11703;SDS011;5908;51.354;7.458;2024-01-30T04:42:19;12.10;;;9.07;;
11703;SDS011;5908;51.354;7.458;2024-01-30T04:44:46;11.40;;;8.52;;
11703;SDS011;5908;51.354;7.458;2024-01-30T04:47:13;11.13;;;8.55;;
11703;SDS011;5908;51.354;7.458;2024-01-30T04:49:40;12.07;;;8.73;;
11703;SDS011;5908;51.354;7.458;2024-01-30T04:52:06;10.50;;;8.30;;
11703;SDS011;5908;51.354;7.458;2024-01-30T04:54:33;10.30;;;9.00;;
11703;SDS011;5908;51.354;7.458;2024-01-30T04:57:02;11.48;;;8.73;;
11703;SDS011;5908;51.354;7.458;2024-01-30T04:59:30;10.73;;;7.97;;
11703;SDS011;5908;51.354;7.458;2024-01-30T05:01:57;12.23;;;8.73;;
11703;SDS011;5908;51.354;7.458;2024-01-30T05:04:24;11.70;;;8.27;;
11703;SDS011;5908;51.354;7.458;2024-01-30T05:06:50;10.65;;;8.57;;
11703;SDS011;5908;51.354;7.458;2024-01-30T05:09:17;10.07;;;8.30;;
11703;SDS011;5908;51.354;7.458;2024-01-30T05:11:44;10.98;;;8.68;;
11703;SDS011;5908;51.354;7.458;2024-01-30T05:14:12;11.60;;;8.82;;
11703;SDS011;5908;51.354;7.458;2024-01-30T05:16:40;11.30;;;9.00;;
11703;SDS011;5908;51.354;7.458;2024-01-30T05:19:08;12.75;;;8.73;;
11703;SDS011;5908;51.354;7.458;2024-01-30T05:21:34;12.80;;;8.55;;
11703;SDS011;5908;51.354;7.458;2024-01-30T05:24:01;12.52;;;8.75;;
11703;SDS011;5908;51.354;7.458;2024-01-30T05:26:28;13.93;;;9.18;;
11703;SDS011;5908;51.354;7.458;2024-01-30T05:28:55;12.15;;;9.32;;
11703;SDS011;5908;51.354;7.458;2024-01-30T05:31:23;11.57;;;8.43;;
11703;SDS011;5908;51.354;7.458;2024-01-30T05:33:51;11.10;;;8.13;;
11703;SDS011;5908;51.354;7.458;2024-01-30T05:36:17;11.70;;;8.25;;
11703;SDS011;5908;51.354;7.458;2024-01-30T05:38:44;12.53;;;8.70;;
11703;SDS011;5908;51.354;7.458;2024-01-30T05:41:11;10.63;;;8.82;;
11703;SDS011;5908;51.354;7.458;2024-01-30T05:43:38;11.65;;;8.82;;
11703;SDS011;5908;51.354;7.458;2024-01-30T05:46:04;11.27;;;8.70;;
11703;SDS011;5908;51.354;7.458;2024-01-30T05:48:33;12.35;;;8.63;;
11703;SDS011;5908;51.354;7.458;2024-01-30T05:51:00;10.23;;;8.13;;
11703;SDS011;5908;51.354;7.458;2024-01-30T05:53:29;10.23;;;8.68;;
11703;SDS011;5908;51.354;7.458;2024-01-30T05:55:55;11.18;;;8.23;;
11703;SDS011;5908;51.354;7.458;2024-01-30T05:58:22;9.73;;;7.80;;
11703;SDS011;5908;51.354;7.458;2024-01-30T06:00:49;11.32;;;7.72;;
11703;SDS011;5908;51.354;7.458;2024-01-30T06:03:15;11.75;;;8.45;;
11703;SDS011;5908;51.354;7.458;2024-01-30T06:05:44;11.70;;;8.40;;
11703;SDS011;5908;51.354;7.458;2024-01-30T06:08:10;9.80;;;8.07;;
11703;SDS011;5908;51.354;7.458;2024-01-30T06:10:37;11.20;;;8.15;;
11703;SDS011;5908;51.354;7.458;2024-01-30T06:13:04;10.27;;;7.75;;
11703;SDS011;5908;51.354;7.458;2024-01-30T06:15:30;14.65;;;10.27;;
11703;SDS011;5908;51.354;7.458;2024-01-30T06:17:57;10.93;;;7.93;;
11703;SDS011;5908;51.354;7.458;2024-01-30T06:20:24;12.40;;;7.68;;
11703;SDS011;5908;51.354;7.458;2024-01-30T06:22:52;10.40;;;8.25;;
11703;SDS011;5908;51.354;7.458;2024-01-30T06:25:19;10.60;;;7.97;;
11703;SDS011;5908;51.354;7.458;2024-01-30T06:27:46;10.80;;;7.63;;
11703;SDS011;5908;51.354;7.458;2024-01-30T06:30:12;11.10;;;8.15;;
11703;SDS011;5908;51.354;7.458;2024-01-30T06:32:39;11.75;;;8.18;;
11703;SDS011;5908;51.354;7.458;2024-01-30T06:35:06;10.88;;;7.82;;
11703;SDS011;5908;51.354;7.458;2024-01-30T06:37:35;10.38;;;8.20;;
11703;SDS011;5908;51.354;7.458;2024-01-30T06:40:04;10.93;;;8.43;;
11703;SDS011;5908;51.354;7.458;2024-01-30T06:42:31;9.57;;;7.80;;
11703;SDS011;5908;51.354;7.458;2024-01-30T06:44:58;23.95;;;15.43;;
11703;SDS011;5908;51.354;7.458;2024-01-30T06:47:24;11.83;;;8.47;;
11703;SDS011;5908;51.354;7.458;2024-01-30T06:49:51;11.80;;;8.75;;
11703;SDS011;5908;51.354;7.458;2024-01-30T06:52:18;12.05;;;8.77;;
11703;SDS011;5908;51.354;7.458;2024-01-30T06:54:45;11.00;;;7.65;;
11703;SDS011;5908;51.354;7.458;2024-01-30T06:57:13;14.85;;;10.75;;
11703;SDS011;5908;51.354;7.458;2024-01-30T06:59:39;10.53;;;8.07;;
11703;SDS011;5908;51.354;7.458;2024-01-30T07:02:08;12.38;;;8.65;;
11703;SDS011;5908;51.354;7.458;2024-01-30T07:04:35;10.75;;;8.60;;
11703;SDS011;5908;51.354;7.458;2024-01-30T07:07:02;10.60;;;8.37;;
11703;SDS011;5908;51.354;7.458;2024-01-30T07:09:30;14.70;;;10.98;;
11703;SDS011;5908;51.354;7.458;2024-01-30T07:11:57;12.85;;;9.02;;
11703;SDS011;5908;51.354;7.458;2024-01-30T07:14:25;11.15;;;9.25;;
11703;SDS011;5908;51.354;7.458;2024-01-30T07:16:52;12.40;;;8.55;;
11703;SDS011;5908;51.354;7.458;2024-01-30T07:19:19;11.52;;;8.80;;
11703;SDS011;5908;51.354;7.458;2024-01-30T07:21:45;10.93;;;8.32;;
11703;SDS011;5908;51.354;7.458;2024-01-30T07:24:12;12.95;;;9.02;;
11703;SDS011;5908;51.354;7.458;2024-01-30T07:26:39;33.58;;;23.40;;
11703;SDS011;5908;51.354;7.458;2024-01-30T07:29:06;12.57;;;9.38;;
11703;SDS011;5908;51.354;7.458;2024-01-30T07:31:34;10.80;;;8.52;;
11703;SDS011;5908;51.354;7.458;2024-01-30T07:34:01;17.45;;;12.13;;
11703;SDS011;5908;51.354;7.458;2024-01-30T07:36:28;15.77;;;11.07;;
11703;SDS011;5908;51.354;7.458;2024-01-30T07:38:55;12.13;;;8.88;;
11703;SDS011;5908;51.354;7.458;2024-01-30T07:41:21;14.48;;;11.20;;
11703;SDS011;5908;51.354;7.458;2024-01-30T07:43:50;9.82;;;7.70;;
11703;SDS011;5908;51.354;7.458;2024-01-30T07:46:17;11.60;;;8.40;;
11703;SDS011;5908;51.354;7.458;2024-01-30T07:48:45;12.02;;;8.73;;
11703;SDS011;5908;51.354;7.458;2024-01-30T07:51:12;11.95;;;7.68;;
11703;SDS011;5908;51.354;7.458;2024-01-30T07:53:38;12.82;;;8.25;;
11703;SDS011;5908;51.354;7.458;2024-01-30T07:56:06;10.52;;;7.65;;
11703;SDS011;5908;51.354;7.458;2024-01-30T07:58:33;9.73;;;7.50;;
11703;SDS011;5908;51.354;7.458;2024-01-30T08:01:00;12.70;;;8.95;;
11703;SDS011;5908;51.354;7.458;2024-01-30T08:03:27;10.77;;;8.00;;
11703;SDS011;5908;51.354;7.458;2024-01-30T08:05:55;11.13;;;7.97;;
11703;SDS011;5908;51.354;7.458;2024-01-30T08:08:22;12.75;;;7.80;;
11703;SDS011;5908;51.354;7.458;2024-01-30T08:10:48;10.43;;;7.70;;
11703;SDS011;5908;51.354;7.458;2024-01-30T08:13:15;11.95;;;8.80;;
11703;SDS011;5908;51.354;7.458;2024-01-30T08:15:42;9.57;;;7.82;;
11703;SDS011;5908;51.354;7.458;2024-01-30T08:18:08;9.75;;;8.00;;
11703;SDS011;5908;51.354;7.458;2024-01-30T08:20:35;12.27;;;8.13;;
11703;SDS011;5908;51.354;7.458;2024-01-30T08:23:03;11.95;;;7.82;;
11703;SDS011;5908;51.354;7.458;2024-01-30T08:25:30;8.97;;;7.00;;
11703;SDS011;5908;51.354;7.458;2024-01-30T08:27:57;9.80;;;6.90;;
11703;SDS011;5908;51.354;7.458;2024-01-30T08:30:23;11.30;;;7.28;;
11703;SDS011;5908;51.354;7.458;2024-01-30T08:32:50;8.40;;;6.50;;
11703;SDS011;5908;51.354;7.458;2024-01-30T08:35:17;10.20;;;6.55;;
11703;SDS011;5908;51.354;7.458;2024-01-30T08:37:43;10.70;;;6.82;;
11703;SDS011;5908;51.354;7.458;2024-01-30T08:40:11;9.83;;;6.87;;
11703;SDS011;5908;51.354;7.458;2024-01-30T08:42:38;10.02;;;6.97;;
11703;SDS011;5908;51.354;7.458;2024-01-30T08:45:05;8.77;;;6.80;;
11703;SDS011;5908;51.354;7.458;2024-01-30T08:47:33;8.75;;;6.82;;
11703;SDS011;5908;51.354;7.458;2024-01-30T08:50:00;10.48;;;6.63;;
11703;SDS011;5908;51.354;7.458;2024-01-30T08:52:27;9.60;;;7.05;;
11703;SDS011;5908;51.354;7.458;2024-01-30T08:54:53;9.02;;;6.80;;
11703;SDS011;5908;51.354;7.458;2024-01-30T08:57:21;9.37;;;7.00;;
11703;SDS011;5908;51.354;7.458;2024-01-30T08:59:48;8.63;;;6.70;;
11703;SDS011;5908;51.354;7.458;2024-01-30T09:02:15;8.43;;;6.70;;
11703;SDS011;5908;51.354;7.458;2024-01-30T09:04:43;7.65;;;6.63;;
11703;SDS011;5908;51.354;7.458;2024-01-30T09:07:09;8.60;;;6.65;;
11703;SDS011;5908;51.354;7.458;2024-01-30T09:09:38;7.97;;;6.70;;
11703;SDS011;5908;51.354;7.458;2024-01-30T09:12:06;8.40;;;6.33;;
11703;SDS011;5908;51.354;7.458;2024-01-30T09:14:35;10.43;;;6.93;;
11703;SDS011;5908;51.354;7.458;2024-01-30T09:17:02;15.07;;;10.32;;
11703;SDS011;5908;51.354;7.458;2024-01-30T09:19:30;13.20;;;9.00;;
11703;SDS011;5908;51.354;7.458;2024-01-30T09:21:57;17.00;;;10.60;;
11703;SDS011;5908;51.354;7.458;2024-01-30T09:24:23;10.43;;;7.72;;
11703;SDS011;5908;51.354;7.458;2024-01-30T09:26:52;12.25;;;8.48;;
11703;SDS011;5908;51.354;7.458;2024-01-30T09:29:18;12.40;;;8.75;;
11703;SDS011;5908;51.354;7.458;2024-01-30T09:31:46;10.00;;;7.07;;
11703;SDS011;5908;51.354;7.458;2024-01-30T09:34:13;9.25;;;6.68;;
11703;SDS011;5908;51.354;7.458;2024-01-30T09:36:40;9.02;;;6.38;;
11703;SDS011;5908;51.354;7.458;2024-01-30T09:39:07;9.73;;;6.88;;
11703;SDS011;5908;51.354;7.458;2024-01-30T09:41:34;8.30;;;5.70;;
11703;SDS011;5908;51.354;7.458;2024-01-30T09:44:08;8.97;;;6.03;;
11703;SDS011;5908;51.354;7.458;2024-01-30T09:46:37;7.77;;;6.17;;
11703;SDS011;5908;51.354;7.458;2024-01-30T09:49:06;8.27;;;6.10;;
11703;SDS011;5908;51.354;7.458;2024-01-30T09:51:34;9.45;;;6.13;;
11703;SDS011;5908;51.354;7.458;2024-01-30T09:54:01;7.63;;;6.40;;
11703;SDS011;5908;51.354;7.458;2024-01-30T09:56:28;7.43;;;6.30;;
11703;SDS011;5908;51.354;7.458;2024-01-30T09:58:55;9.50;;;6.05;;
11703;SDS011;5908;51.354;7.458;2024-01-30T10:01:22;7.53;;;5.63;;
11703;SDS011;5908;51.354;7.458;2024-01-30T10:03:50;9.32;;;6.32;;
11703;SDS011;5908;51.354;7.458;2024-01-30T10:06:19;8.63;;;6.18;;
11703;SDS011;5908;51.354;7.458;2024-01-30T10:08:47;8.25;;;5.80;;
11703;SDS011;5908;51.354;7.458;2024-01-30T10:11:14;8.95;;;5.50;;
11703;SDS011;5908;51.354;7.458;2024-01-30T10:13:40;7.90;;;5.57;;
11703;SDS011;5908;51.354;7.458;2024-01-30T10:16:07;8.47;;;6.00;;
11703;SDS011;5908;51.354;7.458;2024-01-30T10:18:34;6.88;;;5.40;;
11703;SDS011;5908;51.354;7.458;2024-01-30T10:21:00;8.82;;;6.10;;
11703;SDS011;5908;51.354;7.458;2024-01-30T10:23:29;7.95;;;5.82;;
11703;SDS011;5908;51.354;7.458;2024-01-30T10:25:56;8.85;;;5.88;;
11703;SDS011;5908;51.354;7.458;2024-01-30T10:28:23;7.32;;;5.57;;
11703;SDS011;5908;51.354;7.458;2024-01-30T10:30:57;7.47;;;5.70;;
11703;SDS011;5908;51.354;7.458;2024-01-30T10:33:25;7.82;;;5.57;;
11703;SDS011;5908;51.354;7.458;2024-01-30T10:35:53;9.82;;;7.18;;
11703;SDS011;5908;51.354;7.458;2024-01-30T10:38:22;8.38;;;6.15;;
11703;SDS011;5908;51.354;7.458;2024-01-30T10:40:53;8.15;;;6.00;;
11703;SDS011;5908;51.354;7.458;2024-01-30T10:43:23;9.70;;;6.25;;
11703;SDS011;5908;51.354;7.458;2024-01-30T10:45:54;8.10;;;5.88;;
11703;SDS011;5908;51.354;7.458;2024-01-30T10:48:29;9.55;;;6.30;;
11703;SDS011;5908;51.354;7.458;2024-01-30T10:50:59;8.17;;;6.10;;
11703;SDS011;5908;51.354;7.458;2024-01-30T10:53:26;7.70;;;6.33;;
11703;SDS011;5908;51.354;7.458;2024-01-30T10:55:55;8.88;;;6.50;;
11703;SDS011;5908;51.354;7.458;2024-01-30T10:58:23;9.77;;;6.05;;
11703;SDS011;5908;51.354;7.458;2024-01-30T11:00:51;7.50;;;5.90;;
11703;SDS011;5908;51.354;7.458;2024-01-30T11:03:18;10.27;;;6.80;;
11703;SDS011;5908;51.354;7.458;2024-01-30T11:05:48;9.85;;;6.32;;
11703;SDS011;5908;51.354;7.458;2024-01-30T11:08:22;8.57;;;5.93;;
11703;SDS011;5908;51.354;7.458;2024-01-30T11:10:54;8.07;;;6.50;;
11703;SDS011;5908;51.354;7.458;2024-01-30T11:13:26;8.60;;;6.50;;
11703;SDS011;5908;51.354;7.458;2024-01-30T11:15:54;12.45;;;9.45;;
11703;SDS011;5908;51.354;7.458;2024-01-30T11:18:24;10.80;;;8.27;;
11703;SDS011;5908;51.354;7.458;2024-01-30T11:20:51;13.40;;;8.38;;
11703;SDS011;5908;51.354;7.458;2024-01-30T11:23:18;13.40;;;10.68;;
11703;SDS011;5908;51.354;7.458;2024-01-30T11:25:48;10.27;;;6.40;;
11703;SDS011;5908;51.354;7.458;2024-01-30T11:28:16;10.30;;;6.80;;
11703;SDS011;5908;51.354;7.458;2024-01-30T11:30:43;10.63;;;6.80;;
11703;SDS011;5908;51.354;7.458;2024-01-30T11:33:12;9.73;;;6.78;;
11703;SDS011;5908;51.354;7.458;2024-01-30T11:35:40;11.93;;;8.95;;
11703;SDS011;5908;51.354;7.458;2024-01-30T11:38:09;11.27;;;8.65;;
11703;SDS011;5908;51.354;7.458;2024-01-30T11:40:37;10.80;;;7.90;;
11703;SDS011;5908;51.354;7.458;2024-01-30T11:43:05;12.05;;;7.47;;
11703;SDS011;5908;51.354;7.458;2024-01-30T11:45:34;10.48;;;7.28;;
11703;SDS011;5908;51.354;7.458;2024-01-30T11:48:01;11.85;;;7.82;;
11703;SDS011;5908;51.354;7.458;2024-01-30T11:50:29;13.60;;;10.05;;
11703;SDS011;5908;51.354;7.458;2024-01-30T11:52:56;12.15;;;7.97;;
11703;SDS011;5908;51.354;7.458;2024-01-30T11:55:24;10.70;;;7.55;;
11703;SDS011;5908;51.354;7.458;2024-01-30T11:57:50;12.82;;;8.20;;
11703;SDS011;5908;51.354;7.458;2024-01-30T12:00:17;10.25;;;8.30;;
11703;SDS011;5908;51.354;7.458;2024-01-30T12:02:50;16.90;;;11.40;;
11703;SDS011;5908;51.354;7.458;2024-01-30T12:05:20;11.15;;;7.22;;
11703;SDS011;5908;51.354;7.458;2024-01-30T12:07:48;13.25;;;8.20;;
11703;SDS011;5908;51.354;7.458;2024-01-30T12:10:15;10.18;;;7.07;;
11703;SDS011;5908;51.354;7.458;2024-01-30T12:12:43;12.80;;;7.70;;
11703;SDS011;5908;51.354;7.458;2024-01-30T12:15:12;14.30;;;7.60;;
11703;SDS011;5908;51.354;7.458;2024-01-30T12:17:39;14.25;;;7.35;;
11703;SDS011;5908;51.354;7.458;2024-01-30T12:20:08;11.52;;;7.05;;
11703;SDS011;5908;51.354;7.458;2024-01-30T12:22:36;10.52;;;6.50;;
11703;SDS011;5908;51.354;7.458;2024-01-30T12:25:04;11.82;;;6.57;;
11703;SDS011;5908;51.354;7.458;2024-01-30T12:27:33;14.57;;;7.28;;
11703;SDS011;5908;51.354;7.458;2024-01-30T12:30:00;15.57;;;7.63;;
11703;SDS011;5908;51.354;7.458;2024-01-30T12:32:27;17.58;;;8.70;;
11703;SDS011;5908;51.354;7.458;2024-01-30T12:34:54;12.68;;;7.00;;
11703;SDS011;5908;51.354;7.458;2024-01-30T12:37:24;15.25;;;8.63;;
11703;SDS011;5908;51.354;7.458;2024-01-30T12:39:51;13.32;;;6.13;;
11703;SDS011;5908;51.354;7.458;2024-01-30T12:42:19;10.80;;;6.47;;
11703;SDS011;5908;51.354;7.458;2024-01-30T12:44:46;12.23;;;6.65;;
11703;SDS011;5908;51.354;7.458;2024-01-30T12:47:13;11.73;;;6.60;;
11703;SDS011;5908;51.354;7.458;2024-01-30T12:49:41;11.65;;;7.20;;
11703;SDS011;5908;51.354;7.458;2024-01-30T12:52:08;13.57;;;7.17;;
11703;SDS011;5908;51.354;7.458;2024-01-30T12:54:36;14.40;;;6.93;;
11703;SDS011;5908;51.354;7.458;2024-01-30T12:57:03;11.70;;;6.80;;
11703;SDS011;5908;51.354;7.458;2024-01-30T12:59:30;15.40;;;7.38;;
11703;SDS011;5908;51.354;7.458;2024-01-30T13:01:58;12.50;;;7.28;;
11703;SDS011;5908;51.354;7.458;2024-01-30T13:04:26;10.65;;;6.75;;
11703;SDS011;5908;51.354;7.458;2024-01-30T13:06:53;13.33;;;6.50;;
11703;SDS011;5908;51.354;7.458;2024-01-30T13:09:20;13.88;;;7.28;;
11703;SDS011;5908;51.354;7.458;2024-01-30T13:11:48;12.15;;;6.80;;
11703;SDS011;5908;51.354;7.458;2024-01-30T13:14:16;11.67;;;6.80;;
11703;SDS011;5908;51.354;7.458;2024-01-30T13:16:42;13.05;;;7.25;;
11703;SDS011;5908;51.354;7.458;2024-01-30T13:19:09;11.75;;;7.35;;
11703;SDS011;5908;51.354;7.458;2024-01-30T13:21:36;12.20;;;7.30;;
11703;SDS011;5908;51.354;7.458;2024-01-30T13:24:03;11.10;;;7.10;;
11703;SDS011;5908;51.354;7.458;2024-01-30T13:26:31;12.25;;;7.85;;
11703;SDS011;5908;51.354;7.458;2024-01-30T13:28:59;13.40;;;7.80;;
11703;SDS011;5908;51.354;7.458;2024-01-30T13:31:26;13.75;;;8.13;;
11703;SDS011;5908;51.354;7.458;2024-01-30T13:33:53;10.40;;;7.53;;
11703;SDS011;5908;51.354;7.458;2024-01-30T13:36:20;11.37;;;7.87;;
11703;SDS011;5908;51.354;7.458;2024-01-30T13:38:47;12.55;;;8.07;;
11703;SDS011;5908;51.354;7.458;2024-01-30T13:41:14;15.23;;;11.25;;
11703;SDS011;5908;51.354;7.458;2024-01-30T13:43:42;11.18;;;7.70;;
11703;SDS011;5908;51.354;7.458;2024-01-30T13:46:11;11.02;;;7.82;;
11703;SDS011;5908;51.354;7.458;2024-01-30T13:48:38;11.45;;;7.90;;
11703;SDS011;5908;51.354;7.458;2024-01-30T13:51:04;10.43;;;7.60;;
11703;SDS011;5908;51.354;7.458;2024-01-30T13:53:31;11.50;;;8.43;;
11703;SDS011;5908;51.354;7.458;2024-01-30T13:55:58;13.07;;;8.30;;
11703;SDS011;5908;51.354;7.458;2024-01-30T13:58:25;11.77;;;8.43;;
11703;SDS011;5908;51.354;7.458;2024-01-30T14:00:52;12.68;;;8.77;;
11703;SDS011;5908;51.354;7.458;2024-01-30T14:03:20;12.60;;;9.10;;
11703;SDS011;5908;51.354;7.458;2024-01-30T14:05:47;14.20;;;9.10;;
11703;SDS011;5908;51.354;7.458;2024-01-30T14:08:14;15.00;;;10.98;;
11703;SDS011;5908;51.354;7.458;2024-01-30T14:10:41;12.18;;;9.20;;
11703;SDS011;5908;51.354;7.458;2024-01-30T14:13:07;12.40;;;9.40;;
11703;SDS011;5908;51.354;7.458;2024-01-30T14:15:34;13.98;;;10.52;;
11703;SDS011;5908;51.354;7.458;2024-01-30T14:18:01;15.70;;;10.02;;
11703;SDS011;5908;51.354;7.458;2024-01-30T14:20:29;14.20;;;10.00;;
11703;SDS011;5908;51.354;7.458;2024-01-30T14:22:56;14.27;;;9.02;;
11703;SDS011;5908;51.354;7.458;2024-01-30T14:25:24;14.52;;;10.30;;
11703;SDS011;5908;51.354;7.458;2024-01-30T14:27:51;17.13;;;10.48;;
11703;SDS011;5908;51.354;7.458;2024-01-30T14:30:18;21.20;;;10.73;;
11703;SDS011;5908;51.354;7.458;2024-01-30T14:32:44;22.95;;;11.55;;
11703;SDS011;5908;51.354;7.458;2024-01-30T14:35:11;15.30;;;9.55;;
11703;SDS011;5908;51.354;7.458;2024-01-30T14:37:40;16.08;;;9.90;;
11703;SDS011;5908;51.354;7.458;2024-01-30T14:40:07;16.30;;;9.95;;
11703;SDS011;5908;51.354;7.458;2024-01-30T14:42:34;14.70;;;9.85;;
11703;SDS011;5908;51.354;7.458;2024-01-30T14:45:01;18.58;;;11.52;;
11703;SDS011;5908;51.354;7.458;2024-01-30T14:47:28;15.05;;;11.25;;